Time;durP1;ratioP1;P1;durP2;ratioP2;P2;SDS_P1;SDS_P2;PMS_P1;PMS_P2;Temp;Humidity;BMP_temperature;BMP_pressure;BME280_temperature;BME280_humidity;BME280_pressure;Samples;Min_cycle;Max_cycle;Signal;HPM_P1;HPM_P2
2023/06/30 00:00:27;;;;;;;75.75;52.10;;;17.50;99.90;;;;;;4987122;28;20389;-72
2023/06/30 00:02:55;;;;;;;68.63;49.38;;;17.40;99.90;;;;;;4990485;28;20180;-72
2023/06/30 00:05:23;;;;;;;72.97;53.08;;;17.50;99.90;;;;;;4991074;28;20137;-72
2023/06/30 00:07:54;;;;;;;76.78;51.42;;;17.50;99.90;;;;;;4973964;28;20026;-72
2023/06/30 00:10:22;;;;;;;72.90;50.72;;;17.50;99.90;;;;;;4988342;28;20100;-72
2023/06/30 00:12:49;;;;;;;75.47;51.25;;;17.40;99.90;;;;;;4988599;28;20050;-72
2023/06/30 00:15:16;;;;;;;71.30;48.40;;;17.50;99.90;;;;;;4990391;28;20037;-72
2023/06/30 00:17:42;;;;;;;76.82;52.35;;;17.50;99.90;;;;;;4977734;28;20133;-72
2023/06/30 00:20:11;;;;;;;69.28;49.53;;;17.50;99.90;;;;;;4993845;28;20053;-72
2023/06/30 00:22:38;;;;;;;78.47;51.92;;;17.60;99.90;;;;;;4992158;28;20116;-72
2023/06/30 00:25:05;;;;;;;81.63;53.50;;;17.50;99.90;;;;;;4996945;28;20133;-72
2023/06/30 00:27:32;;;;;;;72.40;49.38;;;17.50;99.90;;;;;;4993501;28;20050;-72
2023/06/30 00:29:58;;;;;;;80.45;50.47;;;17.50;99.90;;;;;;4993986;28;20034;-72
2023/06/30 00:32:28;;;;;;;73.00;51.83;;;17.50;99.90;;;;;;4993530;28;20041;-72
2023/06/30 00:34:55;;;;;;;79.25;52.13;;;17.50;99.90;;;;;;4990681;28;20046;-72
2023/06/30 00:37:21;;;;;;;72.00;50.10;;;17.60;99.90;;;;;;4976657;28;20770;-73
2023/06/30 00:39:49;;;;;;;77.53;49.67;;;17.60;99.90;;;;;;4977294;28;20049;-74
2023/06/30 00:42:16;;;;;;;74.88;48.97;;;17.60;99.90;;;;;;4991532;28;20038;-72
2023/06/30 00:44:43;;;;;;;76.60;50.88;;;17.50;99.90;;;;;;4994260;28;20670;-72
2023/06/30 00:47:10;;;;;;;80.75;49.50;;;17.50;99.90;;;;;;4994302;28;20046;-72
2023/06/30 00:49:37;;;;;;;73.35;48.00;;;17.50;99.90;;;;;;4991678;28;20044;-72
2023/06/30 00:52:06;;;;;;;76.55;49.95;;;17.40;99.90;;;;;;4993000;28;20034;-72
2023/06/30 00:54:33;;;;;;;72.28;50.03;;;17.40;99.90;;;;;;4990306;28;20042;-72
2023/06/30 00:57:05;;;;;;;75.13;48.25;;;17.40;99.90;;;;;;4992314;28;20100;-74
2023/06/30 00:59:32;;;;;;;77.18;49.95;;;17.40;99.90;;;;;;4975480;28;20056;-74
2023/06/30 01:02:05;;;;;;;76.35;49.35;;;17.30;99.90;;;;;;4993467;28;20042;-74
2023/06/30 01:04:57;;;;;;;78.28;49.58;;;17.30;99.90;;;;;;4992772;28;20589;-74
2023/06/30 01:07:30;;;;;;;71.30;49.15;;;17.20;99.90;;;;;;5010877;28;20117;-74
2023/06/30 01:10:06;;;;;;;69.82;49.95;;;17.20;99.90;;;;;;4992769;28;20042;-73
2023/06/30 01:12:35;;;;;;;79.40;49.58;;;17.20;99.90;;;;;;4993373;28;20125;-73
2023/06/30 01:15:03;;;;;;;77.85;51.45;;;17.30;99.90;;;;;;4994597;28;20504;-73
2023/06/30 01:17:31;;;;;;;85.00;53.85;;;17.30;99.90;;;;;;4991772;28;20045;-73
2023/06/30 01:20:04;;;;;;;81.88;51.83;;;17.20;99.90;;;;;;4991821;28;20050;-73
2023/06/30 01:22:43;;;;;;;85.40;51.15;;;17.10;99.90;;;;;;4991181;28;20054;-73
2023/06/30 01:25:18;;;;;;;85.93;52.33;;;17.10;99.90;;;;;;4987724;28;20041;-73
2023/06/30 01:27:45;;;;;;;;;;;17.20;99.90;;;;;;4991948;28;20046;-73
2023/06/30 01:30:13;;;;;;;90.78;52.13;;;17.20;99.90;;;;;;4993098;28;19988;-72
2023/06/30 01:32:41;;;;;;;81.05;50.92;;;17.10;99.90;;;;;;4993483;28;20065;-72
2023/06/30 01:35:08;;;;;;;88.53;54.85;;;17.20;99.90;;;;;;4992394;28;20065;-72
2023/06/30 01:37:35;;;;;;;89.60;52.33;;;17.20;99.90;;;;;;4994524;28;20570;-72
2023/06/30 01:40:06;;;;;;;90.07;54.28;;;17.20;99.90;;;;;;4993338;28;20077;-72
2023/06/30 01:42:34;;;;;;;91.10;52.78;;;17.10;99.90;;;;;;4993443;28;20498;-72
2023/06/30 01:45:02;;;;;;;88.68;53.05;;;17.10;99.90;;;;;;4992324;28;20100;-72
2023/06/30 01:47:30;;;;;;;96.20;56.50;;;17.10;99.90;;;;;;4991963;28;20168;-72
2023/06/30 01:49:57;;;;;;;100.00;56.22;;;17.10;99.90;;;;;;4990895;28;20089;-72
2023/06/30 01:52:24;;;;;;;102.13;56.92;;;17.00;99.90;;;;;;4991248;28;20646;-72
2023/06/30 01:54:51;;;;;;;95.95;56.22;;;17.00;99.90;;;;;;4991307;28;20104;-73
2023/06/30 01:57:18;;;;;;;98.72;55.20;;;17.00;99.90;;;;;;4991054;28;20049;-72
2023/06/30 01:59:44;;;;;;;93.28;55.00;;;17.00;99.90;;;;;;4992535;28;20062;-72
2023/06/30 02:02:12;;;;;;;90.15;54.13;;;17.00;99.90;;;;;;4989907;28;20038;-72
2023/06/30 02:04:38;;;;;;;99.35;55.72;;;17.00;99.90;;;;;;4973461;28;20038;-73
2023/06/30 02:07:05;;;;;;;99.68;56.50;;;17.00;99.90;;;;;;4991759;28;20030;-72
2023/06/30 02:09:32;;;;;;;105.65;57.10;;;17.00;99.90;;;;;;4992263;28;20044;-72
2023/06/30 02:12:13;;;;;;;105.00;56.65;;;17.00;99.90;;;;;;4979577;28;20270;-72
2023/06/30 02:14:40;;;;;;;91.30;54.15;;;17.10;99.90;;;;;;4976013;28;20077;-72
2023/06/30 02:17:10;;;;;;;96.25;55.55;;;17.00;99.90;;;;;;4991846;28;20042;-72
2023/06/30 02:19:37;;;;;;;100.63;54.95;;;16.90;99.90;;;;;;4992054;28;20061;-73
2023/06/30 02:22:04;;;;;;;88.70;53.25;;;16.90;99.90;;;;;;4991667;28;22701;-72
2023/06/30 02:24:30;;;;;;;94.95;56.33;;;16.80;99.90;;;;;;4991291;28;20057;-72
2023/06/30 02:26:57;;;;;;;99.32;55.63;;;16.80;99.90;;;;;;4992100;28;20722;-72
2023/06/30 02:29:24;;;;;;;91.00;52.20;;;16.80;99.90;;;;;;4992203;28;20045;-72
2023/06/30 02:31:51;;;;;;;89.93;53.33;;;16.80;99.90;;;;;;4992945;28;20040;-72
2023/06/30 02:34:19;;;;;;;90.70;51.05;;;16.90;99.90;;;;;;4990996;28;20053;-72
2023/06/30 02:36:48;;;;;;;87.57;50.22;;;16.90;99.90;;;;;;4989170;28;20038;-72
2023/06/30 02:39:16;;;;;;;86.95;50.88;;;16.90;99.90;;;;;;4991918;28;20041;-72
2023/06/30 02:41:43;;;;;;;86.72;51.00;;;16.90;99.90;;;;;;4976368;28;20044;-72
2023/06/30 02:44:10;;;;;;;86.38;52.08;;;16.90;99.90;;;;;;4992196;28;20671;-72
2023/06/30 02:46:37;;;;;;;90.85;50.08;;;16.80;99.90;;;;;;4991007;28;20038;-73
2023/06/30 02:49:04;;;;;;;97.32;50.03;;;16.80;99.90;;;;;;4991191;28;20033;-73
2023/06/30 02:51:31;;;;;;;85.13;50.92;;;16.80;99.90;;;;;;4989831;28;20038;-73
2023/06/30 02:53:57;;;;;;;88.47;49.58;;;16.90;99.90;;;;;;4990237;28;20128;-72
2023/06/30 02:56:24;;;;;;;84.50;49.75;;;17.00;99.90;;;;;;4990836;28;20149;-73
2023/06/30 02:58:51;;;;;;;77.90;48.63;;;16.90;99.90;;;;;;4974138;28;20077;-72
2023/06/30 03:01:21;;;;;;;85.10;48.13;;;16.80;99.90;;;;;;4990903;28;20049;-73
2023/06/30 03:03:49;;;;;;;79.43;48.50;;;16.80;99.90;;;;;;4990364;28;20132;-72
2023/06/30 03:06:16;;;;;;;77.53;48.65;;;16.60;99.90;;;;;;4988858;28;20522;-72
2023/06/30 03:08:44;;;;;;;78.63;46.20;;;16.60;99.90;;;;;;4989288;28;20042;-72
2023/06/30 03:11:11;;;;;;;78.78;46.08;;;16.60;99.90;;;;;;4974453;28;20719;-72
2023/06/30 03:13:38;;;;;;;73.35;45.80;;;16.50;99.90;;;;;;4993785;28;20046;-72
2023/06/30 03:16:07;;;;;;;68.95;45.15;;;16.60;99.90;;;;;;4973993;28;20112;-72
2023/06/30 03:18:35;;;;;;;73.68;43.45;;;16.60;99.90;;;;;;4989824;28;20085;-72
2023/06/30 03:21:02;;;;;;;62.00;41.45;;;16.70;99.90;;;;;;4989252;28;20060;-73
2023/06/30 03:23:28;;;;;;;67.32;41.53;;;16.70;99.90;;;;;;4990624;28;20327;-72
2023/06/30 03:25:55;;;;;;;70.53;42.53;;;16.60;99.90;;;;;;4973773;28;20037;-72
2023/06/30 03:28:22;;;;;;;50.38;35.25;;;16.70;99.90;;;;;;4991249;28;20100;-73
2023/06/30 03:30:49;;;;;;;55.05;33.15;;;16.60;99.90;;;;;;4990046;28;20065;-72
2023/06/30 03:33:16;;;;;;;46.13;30.92;;;16.60;99.90;;;;;;4991765;28;20488;-72
2023/06/30 03:35:43;;;;;;;50.58;31.33;;;16.50;99.90;;;;;;4991671;28;20046;-72
2023/06/30 03:38:11;;;;;;;37.63;28.58;;;16.40;99.90;;;;;;4992716;28;20098;-72
2023/06/30 03:40:38;;;;;;;38.58;27.75;;;16.30;99.90;;;;;;4992823;28;20042;-72
2023/06/30 03:43:05;;;;;;;43.35;26.75;;;16.40;99.90;;;;;;4990639;28;20042;-72
2023/06/30 03:45:32;;;;;;;30.88;25.23;;;16.30;99.90;;;;;;4991732;28;20116;-72
2023/06/30 03:47:59;;;;;;;30.25;24.83;;;16.30;99.90;;;;;;4975662;28;20050;-72
2023/06/30 03:50:26;;;;;;;29.10;23.83;;;16.20;99.90;;;;;;4975566;28;20046;-72
2023/06/30 03:52:53;;;;;;;28.15;22.50;;;16.10;99.90;;;;;;4995698;28;20034;-72
2023/06/30 03:55:20;;;;;;;23.90;21.40;;;16.00;99.90;;;;;;4994185;28;20034;-71
2023/06/30 03:57:46;;;;;;;26.77;20.95;;;16.00;99.90;;;;;;4994454;28;20085;-72
2023/06/30 04:00:14;;;;;;;30.13;23.48;;;16.00;99.90;;;;;;4976399;28;20076;-72
2023/06/30 04:02:41;;;;;;;25.45;21.08;;;15.90;99.90;;;;;;4995219;28;20052;-73
2023/06/30 04:05:08;;;;;;;25.27;20.73;;;16.00;99.90;;;;;;4993561;28;20708;-72
2023/06/30 04:07:35;;;;;;;26.05;22.83;;;16.00;99.90;;;;;;4995667;28;20096;-72
2023/06/30 04:10:02;;;;;;;25.58;22.02;;;16.00;99.90;;;;;;4993926;28;20517;-72
2023/06/30 04:12:29;;;;;;;24.65;20.00;;;16.00;99.90;;;;;;4993480;28;20042;-71
2023/06/30 04:14:56;;;;;;;21.58;19.27;;;15.90;99.90;;;;;;4995406;28;20050;-72
2023/06/30 04:17:23;;;;;;;19.95;17.10;;;15.90;99.90;;;;;;4994374;28;20038;-72
2023/06/30 04:19:50;;;;;;;18.77;16.20;;;15.70;99.90;;;;;;4998686;28;20042;-72
2023/06/30 04:22:17;;;;;;;19.85;17.80;;;15.60;99.90;;;;;;5013144;28;20037;-72
2023/06/30 04:24:44;;;;;;;19.52;16.80;;;15.70;99.90;;;;;;4996666;28;20512;-71
2023/06/30 04:27:11;;;;;;;17.15;15.65;;;15.60;99.90;;;;;;4995627;28;21589;-71
2023/06/30 04:29:39;;;;;;;14.88;13.57;;;15.50;99.90;;;;;;4998777;28;20524;-72
2023/06/30 04:32:05;;;;;;;13.95;12.63;;;15.40;99.90;;;;;;4979079;28;20050;-71
2023/06/30 04:34:34;;;;;;;15.07;13.50;;;15.30;99.90;;;;;;4998339;28;20113;-71
2023/06/30 04:37:01;;;;;;;15.70;14.10;;;15.30;99.90;;;;;;4996226;28;20038;-71
2023/06/30 04:39:28;;;;;;;18.42;16.58;;;15.30;99.90;;;;;;4995187;28;20647;-71
2023/06/30 04:41:55;;;;;;;16.38;14.65;;;15.30;99.90;;;;;;4995791;28;20064;-71
2023/06/30 04:44:22;;;;;;;14.98;13.48;;;15.20;99.90;;;;;;4998068;28;20049;-71
2023/06/30 04:46:49;;;;;;;16.52;14.55;;;15.10;99.90;;;;;;4995983;28;20076;-71
2023/06/30 04:49:16;;;;;;;17.35;15.50;;;15.10;99.90;;;;;;4996385;28;20069;-71
2023/06/30 04:51:42;;;;;;;17.85;16.05;;;15.20;99.90;;;;;;4992752;28;20092;-71
2023/06/30 04:54:09;;;;;;;18.08;16.38;;;15.20;99.90;;;;;;4993929;28;20046;-72
2023/06/30 04:56:36;;;;;;;17.10;15.70;;;15.10;99.90;;;;;;4979806;28;20069;-72
2023/06/30 04:59:04;;;;;;;21.85;16.98;;;15.10;99.90;;;;;;4994452;28;20047;-71
2023/06/30 05:01:32;;;;;;;16.80;15.40;;;15.10;99.90;;;;;;4997690;28;20057;-71
2023/06/30 05:03:59;;;;;;;17.77;16.15;;;15.10;99.90;;;;;;4995782;28;20247;-71
2023/06/30 05:06:26;;;;;;;19.70;17.88;;;14.90;99.90;;;;;;4995503;28;20050;-71
2023/06/30 05:08:53;;;;;;;18.98;17.17;;;14.90;99.90;;;;;;4994138;28;20100;-71
2023/06/30 05:11:20;;;;;;;17.90;16.23;;;14.90;99.90;;;;;;4992231;28;20096;-72
2023/06/30 05:13:47;;;;;;;18.08;16.38;;;14.80;99.90;;;;;;4991414;28;20042;-71
2023/06/30 05:16:14;;;;;;;22.15;17.02;;;14.70;99.90;;;;;;4994204;28;20420;-71
2023/06/30 05:18:41;;;;;;;18.95;17.13;;;14.80;99.90;;;;;;4995662;28;20166;-70
2023/06/30 05:21:08;;;;;;;20.77;18.58;;;14.70;99.90;;;;;;4992532;28;20614;-71
2023/06/30 05:23:35;;;;;;;19.92;18.02;;;14.80;99.90;;;;;;4995898;28;20088;-71
2023/06/30 05:26:02;;;;;;;20.85;18.60;;;14.80;99.90;;;;;;4994394;28;20049;-71
2023/06/30 05:28:28;;;;;;;19.70;17.65;;;14.70;99.90;;;;;;4993638;28;20635;-71
2023/06/30 05:30:55;;;;;;;19.65;17.75;;;14.70;99.90;;;;;;4993728;28;20041;-71
2023/06/30 05:33:22;;;;;;;20.20;18.13;;;14.70;99.90;;;;;;4992941;28;20076;-71
2023/06/30 05:35:49;;;;;;;18.58;16.42;;;14.70;99.90;;;;;;4995173;28;20065;-71
2023/06/30 05:38:15;;;;;;;20.30;18.23;;;14.70;99.90;;;;;;4994185;28;20104;-72
2023/06/30 05:40:42;;;;;;;19.98;18.02;;;14.70;99.90;;;;;;4994409;28;20137;-71
2023/06/30 05:43:09;;;;;;;19.58;17.67;;;14.70;99.90;;;;;;4993536;28;20041;-71
2023/06/30 05:45:37;;;;;;;18.15;16.50;;;14.70;99.90;;;;;;4994285;28;20048;-72
2023/06/30 05:48:04;;;;;;;18.23;16.55;;;14.70;99.90;;;;;;4994292;28;20528;-72
2023/06/30 05:50:31;;;;;;;18.35;16.60;;;14.60;99.90;;;;;;4993862;28;20061;-71
2023/06/30 05:52:57;;;;;;;19.25;17.27;;;14.50;99.90;;;;;;4995630;28;20065;-71
2023/06/30 05:55:24;;;;;;;18.70;16.85;;;14.50;99.90;;;;;;4993750;28;20107;-70
2023/06/30 05:57:51;;;;;;;22.88;17.98;;;14.50;99.90;;;;;;4993184;28;20772;-70
2023/06/30 06:00:18;;;;;;;19.10;16.92;;;14.50;99.90;;;;;;4991697;28;20112;-71
2023/06/30 06:02:45;;;;;;;18.67;16.77;;;14.70;99.90;;;;;;4995190;28;21245;-71
2023/06/30 06:05:12;;;;;;;20.55;18.05;;;14.60;99.90;;;;;;4992038;28;20385;-72
2023/06/30 06:07:40;;;;;;;19.65;16.70;;;14.60;99.90;;;;;;4993617;28;20520;-71
2023/06/30 06:10:07;;;;;;;19.88;18.05;;;14.60;99.90;;;;;;4993280;28;20206;-71
2023/06/30 06:12:34;;;;;;;18.50;16.73;;;14.60;99.90;;;;;;4994342;28;20037;-71
2023/06/30 06:15:02;;;;;;;19.42;17.17;;;14.50;99.90;;;;;;4993317;28;20042;-71
2023/06/30 06:17:28;;;;;;;18.70;16.92;;;14.50;99.90;;;;;;4993127;28;20459;-71
2023/06/30 06:19:57;;;;;;;21.35;17.17;;;14.40;99.90;;;;;;4994944;28;20045;-71
2023/06/30 06:22:24;;;;;;;20.88;17.20;;;14.30;99.90;;;;;;4994073;28;20112;-71
2023/06/30 06:24:51;;;;;;;17.25;15.63;;;14.40;99.90;;;;;;4976533;28;20558;-71
2023/06/30 06:27:17;;;;;;;18.50;16.05;;;14.50;99.90;;;;;;4989054;28;21473;-71
2023/06/30 06:29:44;;;;;;;17.55;15.88;;;14.50;99.90;;;;;;4995657;28;20053;-71
2023/06/30 06:32:11;;;;;;;18.25;16.48;;;14.50;99.90;;;;;;4993199;28;20049;-71
2023/06/30 06:34:38;;;;;;;18.35;16.60;;;14.50;99.90;;;;;;4993031;28;20034;-71
2023/06/30 06:37:05;;;;;;;18.27;16.35;;;14.60;99.90;;;;;;4991857;28;20400;-71
2023/06/30 06:39:32;;;;;;;18.45;16.58;;;14.70;99.90;;;;;;4988774;28;20042;-71
2023/06/30 06:41:59;;;;;;;19.17;17.23;;;14.70;99.90;;;;;;4990866;28;20051;-71
2023/06/30 06:44:28;;;;;;;18.33;16.52;;;14.80;99.90;;;;;;4973597;28;20065;-71
2023/06/30 06:47:32;;;;;;;20.35;17.88;;;14.80;99.90;;;;;;4992069;28;20038;-71
2023/06/30 06:50:00;;;;;;;18.10;16.40;;;14.80;99.90;;;;;;4988176;28;20501;-71
2023/06/30 06:52:27;;;;;;;21.75;17.67;;;14.80;99.90;;;;;;4990493;28;20156;-71
2023/06/30 06:54:54;;;;;;;19.55;17.55;;;14.80;99.90;;;;;;4990707;28;20042;-71
2023/06/30 06:57:20;;;;;;;20.13;18.13;;;14.90;99.90;;;;;;4994073;28;20046;-71
2023/06/30 06:59:47;;;;;;;19.15;17.25;;;15.00;99.90;;;;;;4991056;28;20390;-71
2023/06/30 07:02:14;;;;;;;19.58;17.50;;;14.90;99.90;;;;;;4972009;28;20065;-72
2023/06/30 07:04:41;;;;;;;21.77;19.27;;;14.90;99.90;;;;;;4991786;28;20628;-71
2023/06/30 07:07:07;;;;;;;29.63;21.35;;;14.90;99.90;;;;;;4975769;28;20137;-71
2023/06/30 07:09:34;;;;;;;23.25;20.98;;;15.00;99.90;;;;;;4992788;28;20046;-70
2023/06/30 07:12:01;;;;;;;26.13;22.40;;;15.00;99.90;;;;;;4990805;28;20042;-70
2023/06/30 07:14:28;;;;;;;25.40;22.05;;;14.80;99.90;;;;;;4976480;28;20050;-71
2023/06/30 07:16:55;;;;;;;24.77;22.13;;;14.70;99.90;;;;;;4990679;28;20045;-71
2023/06/30 07:19:21;;;;;;;30.23;22.33;;;14.70;99.90;;;;;;4973334;28;20065;-72
2023/06/30 07:21:48;;;;;;;32.78;25.50;;;14.90;99.90;;;;;;4991305;28;21118;-71
2023/06/30 07:24:15;;;;;;;30.63;23.25;;;14.90;99.90;;;;;;4973616;28;20088;-71
2023/06/30 07:26:42;;;;;;;32.80;25.35;;;15.00;99.90;;;;;;4993978;28;20042;-71
2023/06/30 07:29:08;;;;;;;30.02;23.15;;;15.20;99.90;;;;;;4996862;28;20575;-71
2023/06/30 07:31:35;;;;;;;31.15;24.13;;;15.30;99.90;;;;;;4978857;28;20073;-71
2023/06/30 07:34:02;;;;;;;28.75;23.40;;;15.40;99.90;;;;;;4994153;28;20046;-70
2023/06/30 07:36:29;;;;;;;31.55;23.38;;;15.40;99.90;;;;;;4996206;28;20034;-71
2023/06/30 07:38:56;;;;;;;33.55;24.73;;;15.50;99.90;;;;;;4995277;28;20042;-72
2023/06/30 07:41:23;;;;;;;40.55;29.80;;;15.40;99.90;;;;;;4995569;28;20116;-71
2023/06/30 07:43:49;;;;;;;42.25;30.85;;;15.40;99.90;;;;;;4995647;28;22113;-71
2023/06/30 07:46:16;;;;;;;42.10;30.48;;;15.40;99.90;;;;;;4994155;28;20046;-69
2023/06/30 07:48:43;;;;;;;42.92;32.45;;;15.50;99.90;;;;;;4998586;28;20042;-71
2023/06/30 07:51:10;;;;;;;44.65;31.55;;;15.60;99.90;;;;;;4993691;28;20069;-71
2023/06/30 07:53:38;;;;;;;36.97;27.73;;;15.70;99.90;;;;;;4997621;28;20049;-71
2023/06/30 07:56:05;;;;;;;34.72;26.23;;;15.60;99.90;;;;;;4998031;28;20045;-71
2023/06/30 07:58:32;;;;;;;40.83;27.90;;;15.50;99.90;;;;;;4996775;28;20038;-71
2023/06/30 08:00:59;;;;;;;41.35;28.25;;;15.40;99.90;;;;;;4991946;28;20042;-71
2023/06/30 08:03:26;;;;;;;44.92;30.77;;;15.20;99.90;;;;;;4995429;28;20073;-71
2023/06/30 08:05:55;;;;;;;47.85;32.10;;;15.20;99.90;;;;;;4994784;28;20133;-70
2023/06/30 08:08:23;;;;;;;41.95;31.08;;;15.20;99.90;;;;;;4995056;28;20111;-71
2023/06/30 08:10:50;;;;;;;49.80;32.92;;;15.20;99.90;;;;;;4996212;28;20117;-71
2023/06/30 08:13:16;;;;;;;46.60;31.30;;;15.20;99.90;;;;;;4994991;28;20591;-71
2023/06/30 08:15:43;;;;;;;48.17;33.08;;;15.10;99.90;;;;;;4995092;28;20049;-71
2023/06/30 08:18:14;;;;;;;57.17;35.17;;;15.00;99.90;;;;;;4994522;28;20129;-72
2023/06/30 08:21:00;;;;;;;;;;;15.00;99.90;;;;;;4995126;28;20073;-70
2023/06/30 08:23:27;;;;;;;63.92;36.35;;;14.90;99.90;;;;;;4978719;28;20390;-72
2023/06/30 08:25:55;;;;;;;67.22;40.75;;;14.90;99.90;;;;;;4994631;28;20066;-71
2023/06/30 08:28:22;;;;;;;69.90;39.78;;;14.90;99.90;;;;;;4992389;28;20659;-71
2023/06/30 08:30:49;;;;;;;58.30;38.42;;;14.90;99.90;;;;;;4991941;28;20038;-71
2023/06/30 08:33:16;;;;;;;65.10;37.50;;;14.80;99.90;;;;;;4993314;28;20052;-71
2023/06/30 08:36:05;;;;;;;59.60;40.53;;;14.80;99.90;;;;;;4992485;28;20042;-71
2023/06/30 08:38:31;;;;;;;62.17;40.97;;;14.90;99.90;;;;;;4996838;28;20514;-71
2023/06/30 08:41:00;;;;;;;68.85;41.08;;;15.00;99.90;;;;;;4994651;28;20053;-71
2023/06/30 08:43:28;;;;;;;70.05;42.25;;;14.90;99.90;;;;;;4988593;28;20045;-71
2023/06/30 08:45:56;;;;;;;70.53;47.22;;;15.00;99.90;;;;;;4995562;28;20129;-72
2023/06/30 08:48:24;;;;;;;85.63;51.10;;;15.10;99.90;;;;;;4994209;28;20045;-71
2023/06/30 08:50:52;;;;;;;69.82;46.13;;;15.10;99.90;;;;;;4993819;28;20105;-71
2023/06/30 08:53:19;;;;;;;63.67;44.75;;;15.00;99.90;;;;;;4993653;28;20050;-71
2023/06/30 08:55:46;;;;;;;57.70;40.80;;;15.00;99.90;;;;;;4992944;28;20732;-71
2023/06/30 08:58:14;;;;;;;52.72;41.72;;;14.80;99.90;;;;;;4991945;28;20046;-71
2023/06/30 09:00:55;;;;;;;59.45;45.10;;;14.80;99.90;;;;;;4993884;28;20806;-71
2023/06/30 09:03:23;;;;;;;63.75;42.67;;;14.80;99.90;;;;;;4992276;28;20057;-74
2023/06/30 09:05:54;;;;;;;54.45;43.92;;;14.80;99.90;;;;;;4995128;28;20072;-74
2023/06/30 09:08:26;;;;;;;56.58;42.85;;;14.80;99.90;;;;;;4988397;28;20049;-71
2023/06/30 09:10:54;;;;;;;51.10;42.67;;;14.80;99.90;;;;;;4993032;28;20046;-71
2023/06/30 09:13:23;;;;;;;47.88;38.38;;;14.90;99.90;;;;;;4991157;28;20042;-70
2023/06/30 09:15:54;;;;;;;48.05;40.53;;;14.90;99.90;;;;;;4992530;28;20042;-71
2023/06/30 09:18:21;;;;;;;45.35;38.38;;;15.10;99.90;;;;;;4993622;28;20058;-71
2023/06/30 09:20:48;;;;;;;42.05;37.67;;;15.30;99.90;;;;;;4977677;28;20130;-72
2023/06/30 09:23:15;;;;;;;44.50;39.08;;;15.40;99.90;;;;;;4992303;28;20054;-71
2023/06/30 09:25:42;;;;;;;40.72;35.15;;;15.70;99.90;;;;;;4993116;28;20738;-71
2023/06/30 09:28:14;;;;;;;44.78;39.47;;;15.80;99.90;;;;;;4990020;28;20046;-73
2023/06/30 09:30:46;;;;;;;37.20;33.75;;;15.80;99.90;;;;;;4991344;28;20057;-74
2023/06/30 09:33:14;;;;;;;34.30;31.30;;;15.80;99.90;;;;;;4990713;28;20077;-73
2023/06/30 09:35:43;;;;;;;35.72;32.65;;;15.90;99.90;;;;;;4989923;28;20096;-73
2023/06/30 09:38:12;;;;;;;37.47;34.40;;;15.90;99.90;;;;;;4992464;28;20046;-73
2023/06/30 09:40:47;;;;;;;41.92;37.92;;;16.10;99.90;;;;;;4991939;28;20057;-73
2023/06/30 09:43:19;;;;;;;38.03;34.53;;;16.10;99.90;;;;;;4989523;28;20042;-73
2023/06/30 09:45:53;;;;;;;40.75;37.08;;;16.30;99.90;;;;;;4991528;28;20555;-74
2023/06/30 09:48:20;;;;;;;39.45;35.90;;;16.50;99.90;;;;;;4989796;28;20054;-71
2023/06/30 09:50:51;;;;;;;40.35;36.55;;;16.50;99.90;;;;;;4992342;28;20049;-71
2023/06/30 09:53:19;;;;;;;38.35;34.83;;;16.50;99.90;;;;;;4990645;28;20149;-73
2023/06/30 09:55:48;;;;;;;38.47;35.40;;;16.60;99.90;;;;;;4973694;28;20685;-72
2023/06/30 09:58:17;;;;;;;39.42;35.85;;;16.80;99.90;;;;;;4990262;28;20049;-72
2023/06/30 10:00:44;;;;;;;38.40;35.05;;;16.90;99.90;;;;;;4991401;28;20545;-71
2023/06/30 10:03:15;;;;;;;37.95;34.70;;;16.80;99.90;;;;;;4988199;28;20077;-71
2023/06/30 10:05:42;;;;;;;36.50;33.38;;;17.10;99.90;;;;;;4987898;28;20038;-72
2023/06/30 10:08:12;;;;;;;33.53;31.00;;;17.30;99.90;;;;;;4991063;28;20045;-71
2023/06/30 10:10:41;;;;;;;32.65;30.38;;;17.20;99.90;;;;;;4988602;28;20536;-72
2023/06/30 10:13:10;;;;;;;34.28;31.48;;;17.10;99.90;;;;;;4991116;28;20046;-72
2023/06/30 10:15:39;;;;;;;34.75;31.90;;;17.10;99.90;;;;;;4991412;28;20143;-72
2023/06/30 10:18:09;;;;;;;34.10;31.17;;;17.00;99.90;;;;;;4995091;28;20072;-71
2023/06/30 10:20:37;;;;;;;31.17;28.58;;;17.00;99.90;;;;;;4992085;28;20053;-71
2023/06/30 10:23:16;;;;;;;30.48;28.17;;;17.00;99.90;;;;;;4989742;28;20053;-72
2023/06/30 10:25:44;;;;;;;29.92;27.67;;;16.90;99.90;;;;;;4973971;28;20050;-73
2023/06/30 10:28:11;;;;;;;28.48;26.05;;;16.80;99.90;;;;;;4989753;28;20502;-71
2023/06/30 10:30:39;;;;;;;28.35;26.02;;;16.80;99.90;;;;;;4993141;28;20049;-71
2023/06/30 10:33:05;;;;;;;27.88;25.88;;;16.80;99.90;;;;;;4990531;28;20038;-71
2023/06/30 10:35:34;;;;;;;27.83;25.38;;;17.10;99.90;;;;;;4989777;28;20060;-72
2023/06/30 10:38:01;;;;;;;26.95;25.13;;;17.30;99.90;;;;;;4992479;28;20046;-71
2023/06/30 10:40:29;;;;;;;29.15;27.08;;;17.40;99.90;;;;;;4989115;28;20358;-71
2023/06/30 10:42:58;;;;;;;28.38;26.45;;;17.60;99.90;;;;;;4989822;28;20892;-71
2023/06/30 10:45:29;;;;;;;28.08;26.30;;;17.80;99.90;;;;;;4973082;28;20124;-72
2023/06/30 10:47:57;;;;;;;28.55;26.38;;;18.20;99.90;;;;;;4991906;28;20046;-71
2023/06/30 10:50:24;;;;;;;28.55;26.60;;;18.40;99.90;;;;;;4990116;28;20692;-72
2023/06/30 10:52:52;;;;;;;27.75;25.70;;;18.40;99.90;;;;;;4992223;28;20041;-71
2023/06/30 10:55:21;;;;;;;29.63;26.98;;;18.50;99.90;;;;;;4989378;28;20480;-71
2023/06/30 10:57:52;;;;;;;28.48;26.45;;;18.10;99.90;;;;;;4990791;28;20045;-72
2023/06/30 11:00:26;;;;;;;29.50;26.90;;;18.10;99.90;;;;;;4986804;28;20038;-70
2023/06/30 11:02:54;;;;;;;28.98;26.90;;;18.00;99.90;;;;;;4990895;28;20045;-74
2023/06/30 11:05:24;;;;;;;26.77;24.65;;;18.00;99.90;;;;;;4989246;28;20049;-72
2023/06/30 11:07:57;;;;;;;29.55;27.27;;;18.10;99.90;;;;;;4991495;28;20041;-72
2023/06/30 11:10:26;;;;;;;28.40;26.52;;;18.20;99.90;;;;;;4971385;28;20054;-71
2023/06/30 11:12:55;;;;;;;29.70;27.50;;;18.20;99.90;;;;;;4988397;28;20677;-73
2023/06/30 11:15:26;;;;;;;25.75;23.95;;;18.20;99.90;;;;;;4989052;28;20217;-72
2023/06/30 11:17:54;;;;;;;27.05;25.00;;;18.30;99.90;;;;;;4993004;28;20107;-72
2023/06/30 11:20:26;;;;;;;28.50;26.38;;;18.40;99.90;;;;;;4989732;28;20049;-72
2023/06/30 11:23:01;;;;;;;27.55;25.55;;;18.70;99.90;;;;;;4972743;28;20097;-73
2023/06/30 11:25:29;;;;;;;;;;;18.80;99.90;;;;;;4989483;28;20081;-71
2023/06/30 11:27:57;;;;;;;31.23;29.02;;;19.00;99.90;;;;;;4989495;28;19922;-73
2023/06/30 11:30:24;;;;;;;26.35;24.45;;;18.90;99.90;;;;;;4987885;28;20077;-71
2023/06/30 11:32:58;;;;;;;28.52;26.63;;;19.60;99.90;;;;;;4991306;28;20046;-72
2023/06/30 11:35:27;;;;;;;28.58;26.75;;;19.80;99.90;;;;;;4985677;28;20046;-72
2023/06/30 11:37:53;;;;;;;28.63;26.83;;;20.20;99.90;;;;;;4989138;28;20038;-71
2023/06/30 11:40:21;;;;;;;28.08;26.10;;;20.30;99.90;;;;;;4989268;28;20112;-72
2023/06/30 11:42:51;;;;;;;31.77;29.60;;;20.30;99.90;;;;;;4974571;28;20052;-72
2023/06/30 11:45:27;;;;;;;31.35;29.25;;;20.50;99.90;;;;;;4986386;28;20050;-72
2023/06/30 11:47:55;;;;;;;31.08;28.92;;;20.60;99.90;;;;;;4975560;28;20495;-72
2023/06/30 11:50:22;;;;;;;32.28;30.10;;;20.20;99.90;;;;;;4986518;28;20049;-72
2023/06/30 11:52:51;;;;;;;32.90;30.85;;;20.00;99.90;;;;;;4988115;28;20080;-72
2023/06/30 11:55:18;;;;;;;28.48;26.25;;;20.20;99.90;;;;;;4983840;28;20479;-71
2023/06/30 11:57:49;;;;;;;26.25;24.30;;;20.60;99.90;;;;;;4974767;28;20698;-72
2023/06/30 12:00:19;;;;;;;30.42;28.58;;;21.10;99.90;;;;;;4988010;28;20096;-74
2023/06/30 12:02:57;;;;;;;31.40;29.10;;;21.10;99.90;;;;;;4992132;28;20104;-73
2023/06/30 12:05:25;;;;;;;31.70;29.80;;;21.40;99.90;;;;;;4986953;28;20070;-74
2023/06/30 12:07:57;;;;;;;32.40;30.40;;;21.30;99.90;;;;;;4990658;28;20050;-71
2023/06/30 12:10:38;;;;;;;34.45;31.60;;;21.00;99.90;;;;;;4987355;28;20054;-71
2023/06/30 12:13:08;;;;;;;32.50;30.33;;;21.10;99.90;;;;;;4993143;28;20468;-71
2023/06/30 12:15:36;;;;;;;28.77;26.77;;;21.20;99.90;;;;;;4991041;28;20096;-74
2023/06/30 12:18:04;;;;;;;29.77;27.67;;;21.60;99.90;;;;;;4992816;28;20046;-73
2023/06/30 12:20:36;;;;;;;30.05;28.00;;;21.50;99.90;;;;;;4991046;28;20038;-73
2023/06/30 12:23:07;;;;;;;29.70;27.25;;;21.10;99.90;;;;;;4993875;28;20714;-72
2023/06/30 12:25:35;;;;;;;29.83;27.70;;;20.60;99.90;;;;;;4990849;28;20054;-72
2023/06/30 12:28:06;;;;;;;28.27;26.52;;;20.30;99.90;;;;;;4992518;28;20042;-73
2023/06/30 12:30:33;;;;;;;30.65;28.75;;;20.10;99.90;;;;;;4991788;28;20049;-74
2023/06/30 12:33:01;;;;;;;32.03;29.75;;;19.90;99.90;;;;;;4992524;28;20393;-73